Time;durP1;ratioP1;P1;durP2;ratioP2;P2;SDS_P1;SDS_P2;PMS_P1;PMS_P2;Temp;Humidity;BMP_temperature;BMP_pressure;BME280_temperature;BME280_humidity;BME280_pressure;Samples;Min_cycle;Max_cycle;Signal;HPM_P1;HPM_P2
2023/03/11 00:00:17;;;;;;;1.97;0.97;;;2.80;43.10;;;;;;5013776;28;49509;-77
2023/03/11 00:02:44;;;;;;;1.20;0.80;;;2.70;43.30;;;;;;5032465;28;46546;-78
2023/03/11 00:05:23;;;;;;;1.42;0.80;;;2.70;43.50;;;;;;5035123;28;46777;-76
2023/03/11 00:07:49;;;;;;;1.50;1.00;;;2.60;44.00;;;;;;5013756;28;46762;-78
2023/03/11 00:10:18;;;;;;;1.30;0.90;;;2.60;44.20;;;;;;5037769;28;46349;-75
2023/03/11 00:12:44;;;;;;;1.50;0.90;;;2.50;44.10;;;;;;5031754;28;46420;-78
2023/03/11 00:15:10;;;;;;;1.30;0.77;;;2.50;44.10;;;;;;5032507;28;46440;-77
2023/03/11 00:17:36;;;;;;;1.63;0.70;;;2.50;44.40;;;;;;5031349;28;46391;-77
2023/03/11 00:20:03;;;;;;;1.20;0.73;;;2.40;44.60;;;;;;5033256;28;47195;-76
2023/03/11 00:22:29;;;;;;;1.60;0.95;;;2.40;45.00;;;;;;5035839;28;46600;-77
2023/03/11 00:24:54;;;;;;;1.50;0.90;;;2.40;45.60;;;;;;5034895;28;46397;-77
2023/03/11 00:27:20;;;;;;;1.30;0.90;;;2.30;46.00;;;;;;5023021;28;46588;-77
2023/03/11 00:29:45;;;;;;;1.90;0.97;;;2.30;46.00;;;;;;5032152;28;45936;-77
2023/03/11 00:32:11;;;;;;;1.83;0.90;;;2.30;46.00;;;;;;5029211;28;45826;-76
2023/03/11 00:34:36;;;;;;;1.20;0.87;;;2.30;46.10;;;;;;5031220;28;46668;-78
2023/03/11 00:37:02;;;;;;;1.20;0.80;;;2.30;47.00;;;;;;5022379;28;46596;-77
2023/03/11 00:39:27;;;;;;;1.20;0.90;;;2.20;47.50;;;;;;5042007;28;46388;-78
2023/03/11 00:41:55;;;;;;;1.80;1.00;;;2.20;47.90;;;;;;5035533;28;46345;-78
2023/03/11 00:44:21;;;;;;;1.90;0.90;;;2.20;48.60;;;;;;5022761;28;46468;-78
2023/03/11 00:46:46;;;;;;;2.50;1.23;;;2.20;49.20;;;;;;5035744;28;45816;-80
2023/03/11 00:49:12;;;;;;;1.50;1.00;;;2.10;49.50;;;;;;5025219;28;48822;-78
2023/03/11 00:51:38;;;;;;;1.30;0.90;;;2.10;50.30;;;;;;5041903;28;46478;-79
2023/03/11 00:54:03;;;;;;;1.50;1.00;;;2.00;50.50;;;;;;5018769;28;46533;-80
2023/03/11 00:56:29;;;;;;;1.70;0.90;;;2.00;51.10;;;;;;5015633;28;46402;-78
2023/03/11 00:58:56;;;;;;;1.50;1.00;;;1.90;52.20;;;;;;5036784;28;46431;-77
2023/03/11 01:01:21;;;;;;;2.55;1.10;;;1.90;51.60;;;;;;5017815;28;46727;-77
2023/03/11 01:03:47;;;;;;;3.20;1.10;;;1.90;51.50;;;;;;5014883;28;46382;-77
2023/03/11 01:06:13;;;;;;;1.57;1.10;;;1.90;51.40;;;;;;5034855;28;46806;-78
2023/03/11 01:08:38;;;;;;;1.90;1.10;;;1.80;51.80;;;;;;5037679;28;46393;-78
2023/03/11 01:11:05;;;;;;;1.60;0.90;;;1.80;52.30;;;;;;5019022;28;46409;-75
2023/03/11 01:13:32;;;;;;;1.48;1.02;;;1.70;52.50;;;;;;5037924;28;46341;-80
2023/03/11 01:15:58;;;;;;;1.80;1.00;;;1.70;52.80;;;;;;5033127;28;46647;-80
2023/03/11 01:18:24;;;;;;;1.50;1.00;;;1.70;53.50;;;;;;5035998;28;46103;-78
2023/03/11 01:20:50;;;;;;;2.45;1.13;;;1.60;53.70;;;;;;5034626;28;46436;-78
2023/03/11 01:23:17;;;;;;;2.00;1.17;;;1.60;54.10;;;;;;5018787;28;46403;-79
2023/03/11 01:25:43;;;;;;;4.90;1.00;;;1.50;54.20;;;;;;5032852;28;46361;-77
2023/03/11 01:28:09;;;;;;;2.13;1.13;;;1.50;54.40;;;;;;5040993;28;46373;-79
2023/03/11 01:30:37;;;;;;;1.65;1.00;;;1.50;54.40;;;;;;5045629;28;46462;-78
2023/03/11 01:33:03;;;;;;;3.10;1.02;;;1.50;54.50;;;;;;5046703;28;45861;-78
2023/03/11 01:35:30;;;;;;;2.22;1.27;;;1.50;54.50;;;;;;5027114;28;46446;-77
2023/03/11 01:37:56;;;;;;;1.55;1.00;;;1.40;54.40;;;;;;5030016;28;46443;-77
2023/03/11 01:40:31;;;;;;;1.40;1.00;;;1.50;54.20;;;;;;5035239;28;46410;-78
2023/03/11 01:42:59;;;;;;;2.30;1.00;;;1.50;53.90;;;;;;5032355;28;45817;-78
2023/03/11 01:46:01;;;;;;;1.60;0.95;;;1.40;54.10;;;;;;5028844;28;46368;-76
2023/03/11 01:48:27;;;;;;;1.35;1.02;;;1.40;54.10;;;;;;5025654;28;47472;-78
2023/03/11 01:50:53;;;;;;;1.30;0.90;;;1.40;55.40;;;;;;5016931;28;46463;-79
2023/03/11 01:53:19;;;;;;;1.10;0.63;;;1.40;54.40;;;;;;5035150;28;46295;-76
2023/03/11 01:55:46;;;;;;;1.55;0.80;;;1.30;54.50;;;;;;5033899;28;46307;-78
2023/03/11 01:58:16;;;;;;;1.15;0.70;;;1.30;54.00;;;;;;5031998;28;46444;-78
2023/03/11 02:00:42;;;;;;;1.27;0.80;;;1.30;53.40;;;;;;5031840;28;46452;-77
2023/03/11 02:03:14;;;;;;;2.28;1.00;;;1.30;53.00;;;;;;5030129;28;46785;-78
2023/03/11 02:05:40;;;;;;;1.40;0.90;;;1.30;52.00;;;;;;5016674;28;46579;-78
2023/03/11 02:08:07;;;;;;;1.15;0.80;;;1.30;51.10;;;;;;5013346;28;48056;-76
2023/03/11 02:10:32;;;;;;;1.70;0.75;;;1.30;50.10;;;;;;5037296;28;46291;-78
2023/03/11 02:12:59;;;;;;;1.23;0.90;;;1.30;49.70;;;;;;5036207;28;46468;-78
2023/03/11 02:15:25;;;;;;;1.10;0.60;;;1.30;49.40;;;;;;5033975;28;46305;-78
2023/03/11 02:17:52;;;;;;;1.33;0.73;;;1.30;49.40;;;;;;5013974;28;48212;-78
2023/03/11 02:20:49;;;;;;;2.03;0.90;;;1.30;48.90;;;;;;5035850;28;46371;-78
2023/03/11 02:23:17;;;;;;;2.10;0.80;;;1.30;48.90;;;;;;5030874;28;46415;-78
2023/03/11 02:26:08;;;;;;;1.10;0.70;;;1.30;48.40;;;;;;5031725;28;46385;-78
2023/03/11 02:28:36;;;;;;;1.00;0.70;;;1.30;48.30;;;;;;5031348;28;46752;-76
2023/03/11 02:31:02;;;;;;;1.02;0.60;;;1.30;48.30;;;;;;5036678;28;46399;-76
2023/03/11 02:33:31;;;;;;;1.27;0.70;;;1.30;47.70;;;;;;5033841;28;46734;-78
2023/03/11 02:35:57;;;;;;;1.00;0.70;;;1.30;47.00;;;;;;5014725;28;45996;-76
2023/03/11 02:38:23;;;;;;;1.37;0.87;;;1.30;47.00;;;;;;5038344;28;46362;-78
2023/03/11 02:40:58;;;;;;;2.03;0.90;;;1.30;47.20;;;;;;5038886;28;46330;-78
2023/03/11 02:43:45;;;;;;;0.93;0.70;;;1.30;47.10;;;;;;5036733;28;46467;-76
2023/03/11 02:46:12;;;;;;;1.20;0.80;;;1.20;47.20;;;;;;5033597;28;46246;-78
2023/03/11 02:48:38;;;;;;;1.20;0.70;;;1.20;47.70;;;;;;5018889;28;48380;-76
2023/03/11 02:51:04;;;;;;;1.40;0.90;;;1.20;47.90;;;;;;5034688;28;46380;-78
2023/03/11 02:53:36;;;;;;;1.20;0.80;;;1.10;48.20;;;;;;5034045;28;46515;-78
2023/03/11 02:56:01;;;;;;;1.70;0.80;;;1.10;48.50;;;;;;5040648;28;46339;-77
2023/03/11 02:58:27;;;;;;;1.10;0.70;;;1.10;48.60;;;;;;5037059;28;46211;-78
2023/03/11 03:00:52;;;;;;;0.90;0.63;;;1.10;48.70;;;;;;5035179;28;46335;-77
2023/03/11 03:03:18;;;;;;;1.13;0.80;;;1.10;49.00;;;;;;5037207;28;46353;-77
2023/03/11 03:05:44;;;;;;;1.43;0.70;;;1.10;49.00;;;;;;5026950;28;46608;-79
2023/03/11 03:08:10;;;;;;;1.75;1.00;;;1.10;48.70;;;;;;5036294;28;46432;-78
2023/03/11 03:10:36;;;;;;;4.40;0.80;;;1.10;48.60;;;;;;5032928;28;46460;-77
2023/03/11 03:13:01;;;;;;;1.33;0.93;;;1.10;48.50;;;;;;5040242;28;46516;-77
2023/03/11 03:15:27;;;;;;;1.37;0.67;;;1.10;48.60;;;;;;5035188;28;46642;-77
2023/03/11 03:17:52;;;;;;;1.30;0.83;;;1.00;48.60;;;;;;5037695;28;47210;-76
2023/03/11 03:20:21;;;;;;;2.53;1.10;;;1.00;49.20;;;;;;5040910;28;45901;-77
2023/03/11 03:22:47;;;;;;;1.30;0.70;;;1.00;49.00;;;;;;5034867;28;45882;-78
2023/03/11 03:25:13;;;;;;;5.15;1.33;;;1.00;49.00;;;;;;5038714;28;45866;-76
2023/03/11 03:27:39;;;;;;;1.00;0.67;;;1.00;49.00;;;;;;5039763;28;46451;-77
2023/03/11 03:30:05;;;;;;;2.43;0.90;;;1.00;49.60;;;;;;5035652;28;46294;-76
2023/03/11 03:32:31;;;;;;;1.95;0.90;;;0.90;49.80;;;;;;5025731;28;46371;-76
2023/03/11 03:34:58;;;;;;;3.63;0.90;;;0.90;49.80;;;;;;5038235;28;47012;-77
2023/03/11 03:37:27;;;;;;;1.38;0.90;;;0.90;50.10;;;;;;5037001;28;47986;-78
2023/03/11 03:39:53;;;;;;;1.80;0.93;;;0.90;50.10;;;;;;5021736;28;46323;-77
2023/03/11 03:42:19;;;;;;;2.72;1.23;;;0.90;50.30;;;;;;5034392;28;46428;-77
2023/03/11 03:44:45;;;;;;;1.00;0.70;;;0.90;50.50;;;;;;5018517;28;45872;-77
2023/03/11 03:47:10;;;;;;;1.37;0.90;;;0.90;50.60;;;;;;5032905;28;48645;-78
2023/03/11 03:49:36;;;;;;;1.13;0.70;;;0.90;50.90;;;;;;5034878;28;46293;-76
2023/03/11 03:52:05;;;;;;;1.53;1.00;;;0.80;50.80;;;;;;5036385;28;45827;-78
2023/03/11 03:54:30;;;;;;;1.70;1.05;;;0.80;50.80;;;;;;5037798;28;46623;-77
2023/03/11 03:56:56;;;;;;;1.40;0.90;;;0.80;50.80;;;;;;5037096;28;46496;-77
2023/03/11 03:59:22;;;;;;;4.43;1.13;;;0.80;50.90;;;;;;5036415;28;46542;-77
2023/03/11 04:01:48;;;;;;;2.23;1.17;;;0.80;50.90;;;;;;5021662;28;45994;-77
2023/03/11 04:04:13;;;;;;;1.30;0.90;;;0.80;51.00;;;;;;5038192;28;46419;-78
2023/03/11 04:06:39;;;;;;;13.17;1.20;;;0.70;50.90;;;;;;5024831;28;48294;-77
2023/03/11 04:09:04;;;;;;;2.60;0.80;;;0.70;51.10;;;;;;5033921;28;46469;-77
2023/03/11 04:11:31;;;;;;;1.10;0.80;;;0.70;51.10;;;;;;5017774;28;45889;-75
2023/03/11 04:13:57;;;;;;;1.33;1.10;;;0.70;51.20;;;;;;5035131;28;46441;-76
2023/03/11 04:16:23;;;;;;;1.97;1.03;;;0.70;51.40;;;;;;5035295;28;45962;-76
2023/03/11 04:18:49;;;;;;;3.50;0.90;;;0.70;51.60;;;;;;5021329;28;46475;-78
2023/03/11 04:21:14;;;;;;;2.10;0.97;;;0.70;51.60;;;;;;5037049;28;46433;-77
2023/03/11 04:23:40;;;;;;;3.13;1.10;;;0.70;51.60;;;;;;5037031;28;46536;-79
2023/03/11 04:26:05;;;;;;;1.70;0.97;;;0.80;51.60;;;;;;5017260;28;48022;-78
2023/03/11 04:28:31;;;;;;;1.20;0.87;;;0.90;51.60;;;;;;5015866;28;46160;-78
2023/03/11 04:30:57;;;;;;;1.53;0.90;;;0.90;51.40;;;;;;5036486;28;45776;-77
2023/03/11 04:33:22;;;;;;;2.13;1.20;;;1.00;51.10;;;;;;5035662;28;46639;-77
2023/03/11 04:35:48;;;;;;;2.13;1.10;;;1.10;50.80;;;;;;5035462;28;46361;-77
2023/03/11 04:38:14;;;;;;;2.87;0.93;;;1.10;50.50;;;;;;5035120;28;46507;-79
2023/03/11 04:40:39;;;;;;;1.50;0.70;;;1.20;50.50;;;;;;5035535;28;46404;-77
2023/03/11 04:43:05;;;;;;;2.00;1.00;;;1.20;50.50;;;;;;5034608;28;46373;-77
2023/03/11 04:45:31;;;;;;;2.47;1.20;;;1.20;50.30;;;;;;5036659;28;46568;-78
2023/03/11 04:47:56;;;;;;;2.10;1.00;;;1.30;50.40;;;;;;5035468;28;45801;-78
2023/03/11 04:50:22;;;;;;;2.50;1.87;;;1.20;50.10;;;;;;5015500;28;45875;-77
2023/03/11 04:52:48;;;;;;;1.30;1.00;;;1.20;50.40;;;;;;5031029;28;46346;-76
2023/03/11 04:55:14;;;;;;;2.07;1.20;;;1.20;50.30;;;;;;5033455;28;47286;-75
2023/03/11 04:57:40;;;;;;;2.85;1.20;;;1.30;50.50;;;;;;5032508;28;46400;-78
2023/03/11 05:00:10;;;;;;;1.65;1.08;;;1.20;50.40;;;;;;5011403;28;46436;-78
2023/03/11 05:02:37;;;;;;;1.55;1.05;;;1.10;50.30;;;;;;5032212;28;45933;-78
2023/03/11 05:05:04;;;;;;;2.20;1.10;;;1.10;50.50;;;;;;5017120;28;47882;-77
2023/03/11 05:07:29;;;;;;;1.30;1.08;;;1.10;50.60;;;;;;5040056;28;46400;-77
2023/03/11 05:09:55;;;;;;;2.40;1.00;;;1.00;50.80;;;;;;5031823;28;46465;-78
2023/03/11 05:12:20;;;;;;;1.47;1.00;;;1.00;50.80;;;;;;5035198;28;46513;-77
2023/03/11 05:14:46;;;;;;;2.07;1.27;;;0.90;51.00;;;;;;5033009;28;46459;-77
2023/03/11 05:17:13;;;;;;;1.27;0.90;;;0.80;51.20;;;;;;5034549;28;46758;-77
2023/03/11 05:19:39;;;;;;;1.20;1.00;;;0.80;51.30;;;;;;5020509;28;46510;-79
2023/03/11 05:22:06;;;;;;;2.38;1.20;;;0.80;51.30;;;;;;5047891;28;46188;-80
2023/03/11 05:24:32;;;;;;;2.25;1.15;;;0.80;51.20;;;;;;5031061;28;48026;-80
2023/03/11 05:26:58;;;;;;;2.92;1.10;;;0.80;50.90;;;;;;5036266;28;45838;-77
2023/03/11 05:29:25;;;;;;;2.50;1.20;;;0.80;50.70;;;;;;5034422;28;46330;-77
2023/03/11 05:31:50;;;;;;;2.40;1.00;;;0.90;50.50;;;;;;5017327;28;46322;-77
2023/03/11 05:34:17;;;;;;;2.70;1.40;;;0.90;50.40;;;;;;5032461;28;47536;-78
2023/03/11 05:36:42;;;;;;;2.30;1.00;;;0.90;50.10;;;;;;5035124;28;46849;-77
2023/03/11 05:39:08;;;;;;;2.90;1.20;;;1.00;50.00;;;;;;5022326;28;46576;-77
2023/03/11 05:41:34;;;;;;;2.63;1.17;;;1.00;49.90;;;;;;5033912;28;46423;-77
2023/03/11 05:43:59;;;;;;;2.73;1.30;;;1.00;49.80;;;;;;5018905;28;49128;-78
2023/03/11 05:46:25;;;;;;;2.53;1.23;;;1.00;49.70;;;;;;5035447;28;45825;-77
2023/03/11 05:48:51;;;;;;;2.00;1.00;;;1.00;49.60;;;;;;5036589;28;46293;-77
2023/03/11 05:51:16;;;;;;;1.80;1.03;;;0.90;49.10;;;;;;5037037;28;46485;-78
2023/03/11 05:53:47;;;;;;;4.00;1.27;;;0.90;49.20;;;;;;5035976;28;47195;-77
2023/03/11 05:56:13;;;;;;;2.25;0.95;;;0.90;49.10;;;;;;5012977;28;46583;-79
2023/03/11 05:58:39;;;;;;;1.42;1.00;;;0.90;48.80;;;;;;5032820;28;46346;-78
2023/03/11 06:01:09;;;;;;;1.63;1.10;;;0.80;48.50;;;;;;5025337;28;46645;-76
2023/03/11 06:03:35;;;;;;;2.15;1.30;;;0.80;48.60;;;;;;5037260;28;46416;-79
2023/03/11 06:06:01;;;;;;;6.03;0.93;;;0.80;48.70;;;;;;5035861;28;46423;-78
2023/03/11 06:08:27;;;;;;;3.77;1.13;;;0.70;48.50;;;;;;5042366;28;46520;-79
2023/03/11 06:10:59;;;;;;;2.40;0.93;;;0.70;48.50;;;;;;5044406;28;46332;-80
2023/03/11 06:13:24;;;;;;;1.10;0.80;;;0.70;48.30;;;;;;5040679;28;46474;-75
2023/03/11 06:15:50;;;;;;;3.43;1.10;;;0.70;47.90;;;;;;5038541;28;46438;-78
2023/03/11 06:18:15;;;;;;;4.33;1.20;;;0.80;47.80;;;;;;5028615;28;46536;-79
2023/03/11 06:20:41;;;;;;;2.10;1.00;;;0.80;47.70;;;;;;5039316;28;45979;-76
2023/03/11 06:23:06;;;;;;;4.10;1.20;;;0.80;47.40;;;;;;5040714;28;47088;-78
2023/03/11 06:25:32;;;;;;;2.60;1.10;;;0.80;47.30;;;;;;5021543;28;46022;-77
2023/03/11 06:27:58;;;;;;;1.40;1.00;;;0.80;47.40;;;;;;5040088;28;46457;-77
2023/03/11 06:30:24;;;;;;;2.27;1.00;;;0.80;47.30;;;;;;5037320;28;46360;-77
2023/03/11 06:32:49;;;;;;;2.55;1.00;;;0.70;46.60;;;;;;5037994;28;46449;-78
2023/03/11 06:35:15;;;;;;;1.27;0.90;;;0.80;46.60;;;;;;5039354;28;46825;-77
2023/03/11 06:37:40;;;;;;;1.20;0.80;;;0.90;46.40;;;;;;5036886;28;46482;-77
2023/03/11 06:40:08;;;;;;;3.63;1.07;;;0.80;46.40;;;;;;5034790;28;46993;-76
2023/03/11 06:42:34;;;;;;;1.95;1.25;;;0.70;46.30;;;;;;5036394;28;46349;-78
2023/03/11 06:44:59;;;;;;;3.58;1.10;;;0.70;45.80;;;;;;5017515;28;46636;-77
2023/03/11 06:47:25;;;;;;;5.50;1.27;;;0.70;45.70;;;;;;5038220;28;46385;-77
2023/03/11 06:49:51;;;;;;;2.23;0.93;;;0.70;45.20;;;;;;5015979;28;46588;-75
2023/03/11 06:52:18;;;;;;;4.22;1.15;;;0.70;45.10;;;;;;5034110;28;45913;-76
2023/03/11 06:54:44;;;;;;;1.90;1.30;;;0.70;45.20;;;;;;5037444;28;46670;-77
2023/03/11 06:57:10;;;;;;;1.73;1.10;;;0.80;45.30;;;;;;5035845;28;46597;-77
2023/03/11 06:59:36;;;;;;;3.20;1.20;;;0.90;44.80;;;;;;5014786;28;46437;-77
2023/03/11 07:02:05;;;;;;;3.43;1.10;;;1.00;45.00;;;;;;5039040;28;47110;-77
2023/03/11 07:04:31;;;;;;;3.05;1.35;;;1.10;45.00;;;;;;5039882;28;46384;-77
2023/03/11 07:06:57;;;;;;;3.42;1.30;;;1.20;45.10;;;;;;5026785;28;46261;-75
2023/03/11 07:09:24;;;;;;;4.40;1.13;;;1.30;45.20;;;;;;5033649;28;46449;-78
2023/03/11 07:11:50;;;;;;;4.03;1.05;;;1.30;45.00;;;;;;5013453;28;48075;-79
2023/03/11 07:14:17;;;;;;;2.40;1.00;;;1.30;45.20;;;;;;5033800;28;46477;-78
2023/03/11 07:16:43;;;;;;;1.70;1.00;;;1.30;46.20;;;;;;5032913;28;46631;-77
2023/03/11 07:19:09;;;;;;;2.60;1.15;;;1.30;44.90;;;;;;5036539;28;46799;-79
2023/03/11 07:21:35;;;;;;;1.50;1.00;;;1.20;45.00;;;;;;5036292;28;47173;-76
2023/03/11 07:24:01;;;;;;;2.77;1.33;;;1.10;45.00;;;;;;5038168;28;46413;-78
2023/03/11 07:26:29;;;;;;;2.15;1.23;;;1.10;45.00;;;;;;5033983;28;46567;-75
2023/03/11 07:28:56;;;;;;;1.02;0.90;;;1.20;45.00;;;;;;5037304;28;45974;-78
2023/03/11 07:31:24;;;;;;;3.47;0.80;;;1.40;45.30;;;;;;5032652;28;46292;-76
2023/03/11 07:33:50;;;;;;;2.08;0.90;;;1.50;45.30;;;;;;5034888;28;46446;-78
2023/03/11 07:36:19;;;;;;;2.58;0.90;;;1.50;45.00;;;;;;5039707;28;46498;-77
2023/03/11 07:38:45;;;;;;;4.55;1.02;;;1.70;44.60;;;;;;5039438;28;45989;-77
2023/03/11 07:41:12;;;;;;;1.90;0.98;;;1.90;44.10;;;;;;5041230;28;46081;-79
2023/03/11 07:43:38;;;;;;;1.65;0.80;;;1.90;43.20;;;;;;5019914;28;46363;-77
2023/03/11 07:46:08;;;;;;;1.83;0.80;;;1.90;42.60;;;;;;5036222;28;46401;-80
2023/03/11 07:48:37;;;;;;;2.63;1.00;;;1.80;42.20;;;;;;5020117;28;46731;-79
2023/03/11 07:51:11;;;;;;;1.40;1.00;;;2.00;43.30;;;;;;5037384;28;47066;-78
2023/03/11 07:53:36;;;;;;;2.00;1.00;;;2.20;41.90;;;;;;5037196;28;46342;-79
2023/03/11 07:56:03;;;;;;;4.37;1.00;;;2.20;40.40;;;;;;5034105;28;46049;-79
2023/03/11 07:58:29;;;;;;;2.35;0.90;;;2.40;40.60;;;;;;5038766;28;46276;-81
2023/03/11 08:00:56;;;;;;;2.13;0.93;;;2.60;39.90;;;;;;5033011;28;47365;-77
2023/03/11 08:03:24;;;;;;;2.25;0.95;;;2.90;39.40;;;;;;5033064;28;46454;-78
2023/03/11 08:05:50;;;;;;;1.40;0.80;;;2.90;38.30;;;;;;5036070;28;46329;-80
2023/03/11 08:08:17;;;;;;;1.60;0.82;;;3.00;37.60;;;;;;5036864;28;46588;-77
2023/03/11 08:10:42;;;;;;;1.35;0.90;;;3.00;37.40;;;;;;5038081;28;46200;-79
2023/03/11 08:13:08;;;;;;;3.63;1.10;;;2.90;37.60;;;;;;5028551;28;46523;-79
2023/03/11 08:15:35;;;;;;;3.73;0.70;;;3.00;37.40;;;;;;5035481;28;46432;-78
2023/03/11 08:18:00;;;;;;;1.63;0.80;;;3.10;37.10;;;;;;5022393;28;46513;-79
2023/03/11 08:20:26;;;;;;;3.37;0.90;;;3.30;37.20;;;;;;5017018;28;48048;-78
2023/03/11 08:22:51;;;;;;;1.70;0.97;;;3.20;36.60;;;;;;5036610;28;46706;-82
2023/03/11 08:25:17;;;;;;;1.77;0.93;;;3.40;36.00;;;;;;5028898;28;46483;-81
2023/03/11 08:27:42;;;;;;;6.67;1.63;;;3.40;35.10;;;;;;5031475;28;46491;-81
2023/03/11 08:30:09;;;;;;;1.30;0.80;;;3.30;35.00;;;;;;5029987;28;46435;-80
2023/03/11 08:32:34;;;;;;;1.63;0.70;;;3.30;34.60;;;;;;5033154;28;46540;-83
2023/03/11 08:35:00;;;;;;;6.33;0.90;;;3.40;35.20;;;;;;5030841;28;46313;-80
2023/03/11 08:37:25;;;;;;;3.33;1.10;;;3.50;35.20;;;;;;5015753;28;46791;-80
2023/03/11 08:39:51;;;;;;;1.87;0.80;;;3.40;34.80;;;;;;5033274;28;46533;-80
2023/03/11 08:42:17;;;;;;;5.40;0.90;;;3.40;34.50;;;;;;5030808;28;45859;-81
2023/03/11 08:44:43;;;;;;;3.13;0.90;;;3.40;35.30;;;;;;5030181;28;46446;-81
2023/03/11 08:47:09;;;;;;;7.70;0.97;;;3.50;34.70;;;;;;5030071;28;46793;-81
2023/03/11 08:49:36;;;;;;;4.07;1.00;;;3.50;34.80;;;;;;5016597;28;48224;-81
2023/03/11 08:52:02;;;;;;;1.70;0.90;;;3.50;33.80;;;;;;5016158;28;46452;-81
2023/03/11 08:54:29;;;;;;;3.20;0.83;;;3.40;33.80;;;;;;5036346;28;46442;-81
2023/03/11 08:56:54;;;;;;;2.70;0.93;;;3.20;33.10;;;;;;5036003;28;46619;-82
2023/03/11 08:59:20;;;;;;;2.80;0.70;;;3.20;33.50;;;;;;5028784;28;47733;-81
2023/03/11 09:01:46;;;;;;;3.40;0.83;;;3.40;33.70;;;;;;5032496;28;46642;-79
2023/03/11 09:04:11;;;;;;;2.53;0.73;;;3.50;32.70;;;;;;5035318;28;46478;-79
2023/03/11 09:06:42;;;;;;;4.40;1.23;;;3.50;32.00;;;;;;5017464;28;46672;-79
2023/03/11 09:09:10;;;;;;;2.33;0.80;;;3.40;31.00;;;;;;5035219;28;46458;-80
2023/03/11 09:11:36;;;;;;;1.55;0.88;;;3.50;31.50;;;;;;5034793;28;46202;-81
2023/03/11 09:14:02;;;;;;;1.58;0.95;;;3.60;31.60;;;;;;5020541;28;46295;-82
2023/03/11 09:16:28;;;;;;;2.87;1.10;;;3.80;31.90;;;;;;5041808;28;46473;-80
2023/03/11 09:18:54;;;;;;;1.60;0.80;;;3.80;31.50;;;;;;5040955;28;46696;-84
2023/03/11 09:21:19;;;;;;;3.85;0.77;;;3.70;29.80;;;;;;5023346;28;46582;-80
2023/03/11 09:23:45;;;;;;;3.47;1.00;;;3.50;29.50;;;;;;5043235;28;46951;-81
2023/03/11 09:26:12;;;;;;;1.97;0.93;;;3.50;29.50;;;;;;5035367;28;46898;-79
2023/03/11 09:28:38;;;;;;;1.07;0.67;;;4.00;29.40;;;;;;5022498;28;50440;-82
2023/03/11 09:31:04;;;;;;;2.38;0.82;;;4.40;28.50;;;;;;5019356;28;47282;-78
2023/03/11 09:33:29;;;;;;;2.17;1.17;;;4.60;28.00;;;;;;5037324;28;46730;-80
2023/03/11 09:35:57;;;;;;;1.90;1.00;;;4.90;28.50;;;;;;5021508;28;46675;-81
2023/03/11 09:38:23;;;;;;;1.77;0.90;;;5.10;28.40;;;;;;5038693;28;46665;-81
2023/03/11 09:41:12;;;;;;;3.30;0.90;;;5.30;28.60;;;;;;5038987;28;46558;-81
2023/03/11 09:43:59;;;;;;;4.40;0.90;;;5.40;29.10;;;;;;5035045;28;46469;-78
2023/03/11 09:46:46;;;;;;;8.97;1.30;;;5.70;29.00;;;;;;5040424;28;46412;-81
2023/03/11 09:49:28;;;;;;;6.00;0.97;;;5.20;27.90;;;;;;5039925;28;47532;-81
2023/03/11 09:52:03;;;;;;;3.10;0.90;;;4.80;27.90;;;;;;5026248;28;46364;-84
2023/03/11 09:54:33;;;;;;;1.83;0.70;;;5.00;28.50;;;;;;5032801;28;46372;-81
2023/03/11 09:57:00;;;;;;;2.97;0.83;;;5.20;28.50;;;;;;5035205;28;45939;-80
2023/03/11 09:59:30;;;;;;;3.03;1.57;;;5.30;28.70;;;;;;5032714;28;46550;-80
2023/03/11 10:01:56;;;;;;;5.53;1.70;;;5.50;28.00;;;;;;5035639;28;46510;-81
2023/03/11 10:04:26;;;;;;;1.77;0.97;;;5.60;27.70;;;;;;5032039;28;46474;-80
2023/03/11 10:06:52;;;;;;;2.67;0.90;;;5.60;26.00;;;;;;5013101;28;46540;-80
2023/03/11 10:09:39;;;;;;;3.00;0.83;;;5.70;26.60;;;;;;5019975;28;49030;-79
2023/03/11 10:12:17;;;;;;;1.37;0.80;;;5.30;24.30;;;;;;5031978;28;46401;-80
2023/03/11 10:15:13;;;;;;;2.40;0.83;;;4.90;25.90;;;;;;5032298;28;46662;-78
2023/03/11 10:18:24;;;;;;;1.97;0.80;;;5.00;26.30;;;;;;5031802;28;46508;-80
2023/03/11 10:21:08;;;;;;;2.17;0.90;;;5.40;26.30;;;;;;4987083;28;49340;-82
2023/03/11 10:24:02;;;;;;;2.03;0.97;;;6.10;25.30;;;;;;5033382;28;46394;-79
2023/03/11 10:26:31;;;;;;;2.73;0.90;;;6.30;25.70;;;;;;5017082;28;46524;-80
2023/03/11 10:29:26;;;;;;;1.53;0.80;;;6.40;25.90;;;;;;5019651;28;46483;-80
2023/03/11 10:32:14;;;;;;;1.80;0.97;;;6.00;24.70;;;;;;5031529;28;46573;-81
2023/03/11 10:34:53;;;;;;;1.43;0.83;;;5.80;24.10;;;;;;5027531;28;46620;-79
2023/03/11 10:37:32;;;;;;;2.77;0.90;;;5.80;24.80;;;;;;5033406;28;46387;-80
2023/03/11 10:40:13;;;;;;;2.60;1.00;;;5.90;25.50;;;;;;5023464;28;46417;-79
2023/03/11 10:42:39;;;;;;;3.53;0.97;;;5.90;25.60;;;;;;5035399;28;46609;-78
2023/03/11 10:45:11;;;;;;;1.23;0.80;;;5.70;24.20;;;;;;5029938;28;46659;-81
2023/03/11 10:47:37;;;;;;;2.67;0.90;;;5.90;24.20;;;;;;5021325;28;46520;-81
2023/03/11 10:50:03;;;;;;;1.63;0.90;;;5.90;24.20;;;;;;5014624;28;46585;-79
2023/03/11 10:52:28;;;;;;;2.93;0.80;;;5.80;24.10;;;;;;5032258;28;47550;-80
2023/03/11 10:55:02;;;;;;;1.40;0.80;;;6.20;24.30;;;;;;5031944;28;45802;-81
2023/03/11 10:57:37;;;;;;;4.20;1.10;;;6.40;24.40;;;;;;5035124;28;46474;-80
2023/03/11 11:00:15;;;;;;;6.77;1.40;;;6.50;24.50;;;;;;5016921;28;46483;-80
2023/03/11 11:02:50;;;;;;;6.60;1.00;;;6.60;24.60;;;;;;5018079;28;48220;-79
2023/03/11 11:05:16;;;;;;;3.90;1.30;;;6.50;24.50;;;;;;5036057;28;46652;-79
2023/03/11 11:07:43;;;;;;;5.10;0.90;;;6.60;24.60;;;;;;5040937;28;46313;-79
2023/03/11 11:10:20;;;;;;;1.87;0.90;;;6.60;24.50;;;;;;5040107;28;46658;-80
2023/03/11 11:13:12;;;;;;;2.33;1.20;;;6.40;23.10;;;;;;5041664;28;46610;-81
2023/03/11 11:15:49;;;;;;;6.50;1.10;;;6.40;22.60;;;;;;5036790;28;46388;-78
2023/03/11 11:18:19;;;;;;;5.17;0.97;;;6.80;23.20;;;;;;5031707;28;46623;-81
2023/03/11 11:21:02;;;;;;;4.63;1.30;;;6.90;23.20;;;;;;5032445;28;46404;-81
2023/03/11 11:23:36;;;;;;;5.70;1.07;;;6.70;22.50;;;;;;5037264;28;46060;-80
2023/03/11 11:26:04;;;;;;;1.50;1.00;;;6.40;23.10;;;;;;5038159;28;46775;-83
2023/03/11 11:28:32;;;;;;;1.63;1.00;;;5.80;22.80;;;;;;5038857;28;46432;-79
2023/03/11 11:30:58;;;;;;;6.03;1.23;;;5.60;23.90;;;;;;5036350;28;46409;-81
2023/03/11 11:33:29;;;;;;;3.17;0.80;;;5.50;23.90;;;;;;5034230;28;47107;-79
2023/03/11 11:35:58;;;;;;;1.90;1.10;;;5.70;24.00;;;;;;5032088;28;46435;-81
2023/03/11 11:38:26;;;;;;;2.67;1.00;;;5.90;24.00;;;;;;5030844;28;46488;-83
2023/03/11 11:40:55;;;;;;;1.93;1.20;;;6.10;23.00;;;;;;5032028;28;46473;-84
2023/03/11 11:43:31;;;;;;;6.23;1.27;;;6.30;23.70;;;;;;5038658;28;46149;-82
2023/03/11 11:46:03;;;;;;;2.97;1.10;;;6.50;23.60;;;;;;5021083;28;46412;-80
2023/03/11 11:48:36;;;;;;;1.83;1.10;;;6.40;22.80;;;;;;5035599;28;46407;-81
2023/03/11 11:51:12;;;;;;;2.47;1.03;;;6.10;22.10;;;;;;5018254;28;46369;-82
2023/03/11 11:54:05;;;;;;;2.90;1.27;;;6.40;23.40;;;;;;5021851;28;48422;-82
2023/03/11 11:56:31;;;;;;;6.57;1.37;;;6.80;23.90;;;;;;5017838;28;46674;-80
2023/03/11 11:58:56;;;;;;;3.00;0.97;;;6.90;23.10;;;;;;5022608;28;46810;-81
2023/03/11 12:01:40;;;;;;;2.53;1.20;;;6.80;22.60;;;;;;5030401;28;46903;-81
2023/03/11 12:04:36;;;;;;;4.70;1.20;;;6.20;22.60;;;;;;5015722;28;49470;-82
2023/03/11 12:07:04;;;;;;;2.97;1.30;;;6.00;23.30;;;;;;5029759;28;46378;-81
2023/03/11 12:10:03;;;;;;;7.07;2.20;;;6.10;23.60;;;;;;5034729;28;45746;-81
2023/03/11 12:12:52;;;;;;;3.10;1.13;;;6.30;23.10;;;;;;5034157;28;46385;-81
2023/03/11 12:15:25;;;;;;;4.13;1.23;;;6.50;23.00;;;;;;5015248;28;48626;-80
2023/03/11 12:17:59;;;;;;;1.80;1.10;;;6.50;23.00;;;;;;5037010;28;45831;-80
2023/03/11 12:20:38;;;;;;;3.57;1.03;;;6.80;23.30;;;;;;5020141;28;46568;-79
2023/03/11 12:23:26;;;;;;;2.77;1.20;;;6.70;23.10;;;;;;5013147;28;47168;-80
2023/03/11 12:26:14;;;;;;;3.50;1.10;;;6.20;22.30;;;;;;5029973;28;46539;-80
2023/03/11 12:28:44;;;;;;;2.80;1.17;;;5.90;24.20;;;;;;5018914;28;45809;-81
2023/03/11 12:31:11;;;;;;;7.40;3.47;;;5.60;23.00;;;;;;5010617;28;46363;-79
2023/03/11 12:33:43;;;;;;;10.70;4.77;;;5.30;23.20;;;;;;5032701;28;45867;-79
2023/03/11 12:36:31;;;;;;;16.03;7.30;;;5.30;23.20;;;;;;5030481;28;46354;-82
2023/03/11 12:38:58;;;;;;;18.50;8.63;;;5.30;23.00;;;;;;5013931;28;46234;-80
2023/03/11 12:42:09;;;;;;;26.57;7.47;;;5.10;22.30;;;;;;5019554;28;47007;-76
2023/03/11 12:44:34;;;;;;;7.30;1.50;;;5.00;22.50;;;;;;5017093;28;46423;-81
2023/03/11 12:47:20;;;;;;;3.30;1.10;;;5.00;22.30;;;;;;5035731;28;46273;-81
2023/03/11 12:49:50;;;;;;;2.77;1.13;;;5.10;21.80;;;;;;5033987;28;46417;-79
2023/03/11 12:52:23;;;;;;;1.50;0.90;;;5.30;22.50;;;;;;5013728;28;46411;-82
2023/03/11 12:55:29;;;;;;;5.63;1.20;;;5.50;22.70;;;;;;5036776;28;46393;-80
2023/03/11 12:58:04;;;;;;;2.70;1.00;;;5.70;22.60;;;;;;5011554;28;47411;-81
2023/03/11 13:00:39;;;;;;;5.90;1.20;;;5.70;21.70;;;;;;5036017;28;46405;-82
2023/03/11 13:03:23;;;;;;;7.63;1.30;;;5.80;22.90;;;;;;5015977;28;46480;-81
2023/03/11 13:06:30;;;;;;;4.20;1.20;;;5.90;21.60;;;;;;5014823;28;46795;-82
2023/03/11 13:08:57;;;;;;;3.37;1.20;;;5.80;22.20;;;;;;5030539;28;47602;-79